aviador You're here:

KQDG Decoded Metar

ADANA/INCIRLIK in USA-MIL
Report Time2017-04-30 13:56:00
UTC Time2017-04-30 14:55:43
Flight Rules vfr VFR
Wind240° at 09 kt
W.Rank240° ranks 17
Current wind is above 240° avg. (6.0)
Visibility9999 m
Phenomena:N/A
Clouds:N/A
Expected CloudBase > 3,200 ft AGL from Temp-Dew spread
CeilingNone
Temp14°C (ISA -1)
Dew Point06°C (59% RH)
AAT9.9°C
QNH1006 hPa
Density Alt545 ft
Elevation240 ft
Report Wrong Elevation
Raw Report
METAR KQDG 301356Z AUTO 24009KT 9999 CLR 14/06 A2971 RMK AO2 SLP063
T01370055 PWINO $=

Extra information for KQDG:More info

Metar Taf Metar & Taf Last 4 Metars F.Rules Stats Wind Profile Meteogram Temp Stats Airport Information Weather charts Add Link Nearby VenuesMetar ALERT Operation Metar Decoded Social comments